sensor_id;sensor_type;location;lat;lon;timestamp;temperature;humidity
19003;DHT22;9634;51.040;13.794;2022-09-09T10:00:57;22.40;99.90
19003;DHT22;9634;51.040;13.794;2022-09-09T10:06:04;23.50;99.90
19003;DHT22;9634;51.040;13.794;2022-09-09T10:11:20;26.30;99.90
19003;DHT22;9634;51.040;13.794;2022-09-09T10:16:38;31.30;99.90
19003;DHT22;9634;51.040;13.794;2022-09-09T10:27:29;34.20;53.60
19003;DHT22;9634;51.040;13.794;2022-09-09T10:32:37;35.90;46.70
19003;DHT22;9634;51.040;13.794;2022-09-09T10:37:54;38.00;32.80
19003;DHT22;9634;51.040;13.794;2022-09-09T10:43:12;38.50;27.30
19003;DHT22;9634;51.040;13.794;2022-09-09T10:48:36;38.70;26.40
19003;DHT22;9634;51.040;13.794;2022-09-09T10:53:52;40.60;23.00
19003;DHT22;9634;51.040;13.794;2022-09-09T10:58:59;42.70;19.80
19003;DHT22;9634;51.040;13.794;2022-09-09T11:04:08;43.70;18.10
19003;DHT22;9634;51.040;13.794;2022-09-09T11:09:17;45.00;15.30
19003;DHT22;9634;51.040;13.794;2022-09-09T11:14:23;45.40;14.90
19003;DHT22;9634;51.040;13.794;2022-09-09T11:19:32;42.40;17.60
19003;DHT22;9634;51.040;13.794;2022-09-09T11:24:39;37.30;20.70
19003;DHT22;9634;51.040;13.794;2022-09-09T11:29:59;32.40;28.70
19003;DHT22;9634;51.040;13.794;2022-09-09T11:35:14;28.40;63.80
19003;DHT22;9634;51.040;13.794;2022-09-09T11:40:24;27.20;99.90
19003;DHT22;9634;51.040;13.794;2022-09-09T11:45:28;33.10;70.10
19003;DHT22;9634;51.040;13.794;2022-09-09T11:50:33;32.60;63.30
19003;DHT22;9634;51.040;13.794;2022-09-09T11:55:38;36.30;48.10
19003;DHT22;9634;51.040;13.794;2022-09-09T12:00:41;39.90;34.90
19003;DHT22;9634;51.040;13.794;2022-09-09T12:05:45;39.70;29.90
19003;DHT22;9634;51.040;13.794;2022-09-09T12:10:56;36.90;32.50
19003;DHT22;9634;51.040;13.794;2022-09-09T12:15:59;36.10;32.70
19003;DHT22;9634;51.040;13.794;2022-09-09T12:21:06;41.50;25.10
19003;DHT22;9634;51.040;13.794;2022-09-09T12:26:30;42.50;22.30
19003;DHT22;9634;51.040;13.794;2022-09-09T12:41:50;49.50;9.90
19003;DHT22;9634;51.040;13.794;2022-09-09T12:46:59;46.30;11.30
19003;DHT22;9634;51.040;13.794;2022-09-09T12:52:04;39.50;16.40
19003;DHT22;9634;51.040;13.794;2022-09-09T12:57:11;34.90;24.10
19003;DHT22;9634;51.040;13.794;2022-09-09T13:02:19;32.50;31.20
19003;DHT22;9634;51.040;13.794;2022-09-09T13:07:21;31.30;37.00
19003;DHT22;9634;51.040;13.794;2022-09-09T13:12:27;39.70;32.00
19003;DHT22;9634;51.040;13.794;2022-09-09T13:17:29;45.70;38.10
19003;DHT22;9634;51.040;13.794;2022-09-09T13:22:34;43.50;31.10
19003;DHT22;9634;51.040;13.794;2022-09-09T13:27:40;44.30;29.00
19003;DHT22;9634;51.040;13.794;2022-09-09T13:32:43;44.50;28.90
19003;DHT22;9634;51.040;13.794;2022-09-09T13:37:45;39.90;43.70
19003;DHT22;9634;51.040;13.794;2022-09-09T13:47:54;50.80;30.10
19003;DHT22;9634;51.040;13.794;2022-09-09T13:52:58;46.00;35.20
19003;DHT22;9634;51.040;13.794;2022-09-09T14:03:05;35.20;20.10
19003;DHT22;9634;51.040;13.794;2022-09-09T14:08:16;34.90;21.10
19003;DHT22;9634;51.040;13.794;2022-09-09T14:13:21;32.90;23.10
19003;DHT22;9634;51.040;13.794;2022-09-09T14:18:23;31.00;27.70
19003;DHT22;9634;51.040;13.794;2022-09-09T14:23:26;29.70;36.80
19003;DHT22;9634;51.040;13.794;2022-09-09T14:28:29;28.90;44.30
19003;DHT22;9634;51.040;13.794;2022-09-09T14:33:31;28.70;46.20
19003;DHT22;9634;51.040;13.794;2022-09-09T14:38:35;29.10;45.60
19003;DHT22;9634;51.040;13.794;2022-09-09T14:43:41;29.70;45.10
19003;DHT22;9634;51.040;13.794;2022-09-09T14:48:44;31.80;42.30
19003;DHT22;9634;51.040;13.794;2022-09-09T14:53:52;33.80;37.80
19003;DHT22;9634;51.040;13.794;2022-09-09T14:58:57;34.00;37.00
19003;DHT22;9634;51.040;13.794;2022-09-09T15:04:03;32.10;38.10
19003;DHT22;9634;51.040;13.794;2022-09-09T15:09:06;30.10;42.90
19003;DHT22;9634;51.040;13.794;2022-09-09T15:14:09;28.80;49.10
19003;DHT22;9634;51.040;13.794;2022-09-09T15:19:12;28.00;51.80
19003;DHT22;9634;51.040;13.794;2022-09-09T15:24:15;27.70;54.20
19003;DHT22;9634;51.040;13.794;2022-09-09T15:29:18;27.40;57.30
19003;DHT22;9634;51.040;13.794;2022-09-09T15:34:21;26.40;77.70
19003;DHT22;9634;51.040;13.794;2022-09-09T16:19:48;23.70;99.90
19003;DHT22;9634;51.040;13.794;2022-09-09T17:55:44;18.60;99.90
19003;DHT22;9634;51.040;13.794;2022-09-09T18:00:48;18.40;99.90
19003;DHT22;9634;51.040;13.794;2022-09-09T18:05:50;18.40;99.90
19003;DHT22;9634;51.040;13.794;2022-09-09T18:10:52;18.40;99.90
19003;DHT22;9634;51.040;13.794;2022-09-09T18:15:57;18.30;99.90
19003;DHT22;9634;51.040;13.794;2022-09-09T19:16:44;17.20;99.90
19003;DHT22;9634;51.040;13.794;2022-09-09T19:21:48;17.10;99.90
19003;DHT22;9634;51.040;13.794;2022-09-09T19:26:52;17.00;99.90
19003;DHT22;9634;51.040;13.794;2022-09-09T19:31:59;17.10;99.90
19003;DHT22;9634;51.040;13.794;2022-09-09T19:37:02;17.10;99.90
19003;DHT22;9634;51.040;13.794;2022-09-09T19:42:05;17.10;99.90
19003;DHT22;9634;51.040;13.794;2022-09-09T19:47:08;17.20;99.90
19003;DHT22;9634;51.040;13.794;2022-09-09T19:52:10;17.20;99.90
19003;DHT22;9634;51.040;13.794;2022-09-09T19:57:13;17.20;99.90
19003;DHT22;9634;51.040;13.794;2022-09-09T20:02:17;17.30;99.90
19003;DHT22;9634;51.040;13.794;2022-09-09T20:07:19;17.20;99.90
19003;DHT22;9634;51.040;13.794;2022-09-09T20:12:21;17.50;99.90
19003;DHT22;9634;51.040;13.794;2022-09-09T20:17:25;17.40;99.90
19003;DHT22;9634;51.040;13.794;2022-09-09T20:22:27;17.20;99.90
19003;DHT22;9634;51.040;13.794;2022-09-09T20:27:29;17.10;99.90
19003;DHT22;9634;51.040;13.794;2022-09-09T20:32:33;17.10;99.90
19003;DHT22;9634;51.040;13.794;2022-09-09T20:37:35;17.20;99.90
19003;DHT22;9634;51.040;13.794;2022-09-09T20:42:38;17.10;99.90
19003;DHT22;9634;51.040;13.794;2022-09-09T20:47:41;16.90;99.90
19003;DHT22;9634;51.040;13.794;2022-09-09T20:52:44;16.90;99.90
19003;DHT22;9634;51.040;13.794;2022-09-09T20:57:47;17.00;99.90
19003;DHT22;9634;51.040;13.794;2022-09-09T21:02:51;17.00;99.90
19003;DHT22;9634;51.040;13.794;2022-09-09T21:07:53;17.00;99.90
19003;DHT22;9634;51.040;13.794;2022-09-09T21:12:56;17.10;99.90
19003;DHT22;9634;51.040;13.794;2022-09-09T21:18:02;17.10;99.90
19003;DHT22;9634;51.040;13.794;2022-09-09T21:23:04;17.10;99.90
19003;DHT22;9634;51.040;13.794;2022-09-09T21:28:07;17.10;99.90
19003;DHT22;9634;51.040;13.794;2022-09-09T21:33:11;17.00;99.90
19003;DHT22;9634;51.040;13.794;2022-09-09T21:38:15;17.10;99.90
19003;DHT22;9634;51.040;13.794;2022-09-09T21:43:19;17.00;99.90
19003;DHT22;9634;51.040;13.794;2022-09-09T21:48:24;17.10;99.90
19003;DHT22;9634;51.040;13.794;2022-09-09T21:53:26;17.00;99.90
19003;DHT22;9634;51.040;13.794;2022-09-09T21:58:29;17.00;99.90
19003;DHT22;9634;51.040;13.794;2022-09-09T22:03:35;16.80;99.90
19003;DHT22;9634;51.040;13.794;2022-09-09T22:08:38;16.60;99.90
19003;DHT22;9634;51.040;13.794;2022-09-09T22:13:40;16.30;99.90
19003;DHT22;9634;51.040;13.794;2022-09-09T22:18:51;16.10;99.90
19003;DHT22;9634;51.040;13.794;2022-09-09T22:23:54;16.00;99.90
19003;DHT22;9634;51.040;13.794;2022-09-09T22:28:58;16.00;99.90
19003;DHT22;9634;51.040;13.794;2022-09-09T22:34:01;15.90;99.90
19003;DHT22;9634;51.040;13.794;2022-09-09T22:39:04;15.80;99.90
